createdAt,value
2023-05-25T00:00:53.492Z,76.50
2023-05-25T00:03:34.063Z,76.67
2023-05-25T00:06:02.756Z,76.88
2023-05-25T00:08:30.138Z,76.83
2023-05-25T00:10:57.715Z,77.04
2023-05-25T00:13:25.679Z,77.16
2023-05-25T00:15:53.298Z,77.13
2023-05-25T00:18:21.173Z,77.43
2023-05-25T00:20:48.736Z,77.60
2023-05-25T00:23:16.187Z,77.59
2023-05-25T00:25:43.602Z,77.72
2023-05-25T00:28:11.857Z,77.92
2023-05-25T00:30:39.531Z,77.93
2023-05-25T00:33:07.194Z,78.11
2023-05-25T00:35:34.536Z,78.33
2023-05-25T00:38:01.687Z,78.43
2023-05-25T00:40:29.136Z,78.57
2023-05-25T00:42:57.089Z,78.62
2023-05-25T00:45:24.843Z,78.74
2023-05-25T00:47:54.543Z,78.75
2023-05-25T00:50:35.424Z,78.85
2023-05-25T00:53:03.080Z,79.04
2023-05-25T00:55:34.945Z,79.11
2023-05-25T00:58:05.047Z,79.36
2023-05-25T01:00:34.428Z,79.45
2023-05-25T01:03:02.296Z,79.54
2023-05-25T01:05:31.123Z,79.58
2023-05-25T01:08:03.598Z,79.74
2023-05-25T01:10:32.877Z,79.87
2023-05-25T01:13:01.084Z,79.99
2023-05-25T01:15:29.728Z,80.25
2023-05-25T01:17:59.705Z,80.32
2023-05-25T01:20:30.164Z,80.30
2023-05-25T01:23:01.753Z,80.43
2023-05-25T01:25:34.580Z,80.65
2023-05-25T01:28:08.154Z,80.89
2023-05-25T01:30:38.055Z,80.88
2023-05-25T01:33:06.417Z,80.88
2023-05-25T01:35:36.707Z,81.11
2023-05-25T01:38:04.417Z,81.19
2023-05-25T01:40:32.014Z,81.30
2023-05-25T01:43:01.493Z,81.36
2023-05-25T01:45:29.353Z,81.61
2023-05-25T01:48:08.631Z,81.63
2023-05-25T01:50:44.577Z,81.73
2023-05-25T01:53:20.278Z,81.86
2023-05-25T01:55:55.130Z,82.18
2023-05-25T01:58:23.811Z,82.13
2023-05-25T02:00:52.912Z,82.18
2023-05-25T02:03:21.402Z,82.16
2023-05-25T02:05:50.211Z,82.25
2023-05-25T02:08:17.843Z,82.28
2023-05-25T02:10:45.130Z,82.22
2023-05-25T02:13:12.761Z,82.38
2023-05-25T02:15:39.885Z,82.46
2023-05-25T02:18:08.898Z,82.59
2023-05-25T02:20:37.586Z,82.53
2023-05-25T02:23:05.201Z,82.65
2023-05-25T02:25:32.332Z,82.80
2023-05-25T02:28:00.170Z,82.86
2023-05-25T02:30:27.827Z,82.97
2023-05-25T02:32:55.488Z,82.75
2023-05-25T02:35:23.386Z,82.90
2023-05-25T02:37:52.066Z,82.89
2023-05-25T02:40:20.314Z,82.96
2023-05-25T02:42:47.913Z,82.83
2023-05-25T02:45:15.706Z,82.87
2023-05-25T02:47:42.915Z,83.12
2023-05-25T02:50:11.595Z,82.99
2023-05-25T02:52:43.136Z,82.99
2023-05-25T02:55:13.434Z,83.07
2023-05-25T02:57:41.232Z,83.04
2023-05-25T03:00:12.487Z,83.09
2023-05-25T03:02:40.097Z,83.30
2023-05-25T03:05:09.084Z,83.16
2023-05-25T03:07:36.615Z,83.32
2023-05-25T03:10:04.072Z,83.36
2023-05-25T03:12:33.022Z,83.29
2023-05-25T03:15:00.400Z,83.35
2023-05-25T03:17:27.968Z,83.33
2023-05-25T03:19:55.207Z,83.34
2023-05-25T03:22:22.446Z,83.32
2023-05-25T03:24:50.385Z,83.38
2023-05-25T03:27:17.824Z,83.43
2023-05-25T03:29:45.626Z,83.31
2023-05-25T03:32:14.042Z,83.46
2023-05-25T03:34:41.540Z,83.38
2023-05-25T03:37:12.276Z,83.48
2023-05-25T03:39:40.120Z,83.36
2023-05-25T03:42:08.347Z,83.40
2023-05-25T03:44:37.255Z,83.32
2023-05-25T03:47:06.097Z,83.31
2023-05-25T03:49:33.406Z,83.31
2023-05-25T03:52:01.424Z,83.26
2023-05-25T03:54:28.665Z,83.18
2023-05-25T03:57:12.068Z,83.15
2023-05-25T03:59:39.645Z,83.13
2023-05-25T04:02:07.104Z,82.92
2023-05-25T04:04:34.770Z,82.90
2023-05-25T04:07:03.527Z,83.07
2023-05-25T04:09:31.086Z,83.00
2023-05-25T04:11:58.344Z,82.82
2023-05-25T04:14:25.727Z,82.82
2023-05-25T04:16:53.533Z,82.86
2023-05-25T04:19:20.616Z,82.67
2023-05-25T04:21:48.109Z,82.55
2023-05-25T04:24:16.234Z,82.44
2023-05-25T04:26:43.792Z,82.50
2023-05-25T04:29:12.268Z,82.37
2023-05-25T04:31:59.554Z,82.00
2023-05-25T04:34:45.177Z,82.13
2023-05-25T04:37:18.188Z,82.16
2023-05-25T04:39:46.266Z,82.11
2023-05-25T04:42:13.578Z,81.77
2023-05-25T04:44:41.145Z,81.52
2023-05-25T04:47:10.866Z,81.40
2023-05-25T04:49:39.025Z,81.34
2023-05-25T04:52:09.051Z,81.14
2023-05-25T04:54:37.121Z,81.19
2023-05-25T04:57:05.052Z,81.12
2023-05-25T04:59:32.644Z,80.90
2023-05-25T05:02:01.125Z,80.98
2023-05-25T05:04:28.380Z,81.21
2023-05-25T05:06:58.778Z,81.15
2023-05-25T05:09:28.105Z,81.06
2023-05-25T05:11:57.617Z,81.17
2023-05-25T05:14:24.799Z,81.09
2023-05-25T05:16:53.455Z,81.18
2023-05-25T05:19:21.739Z,81.10
2023-05-25T05:21:52.569Z,80.98
2023-05-25T05:24:20.713Z,80.99
2023-05-25T05:26:58.223Z,81.02
2023-05-25T05:29:47.942Z,80.90
2023-05-25T05:32:15.982Z,80.67
2023-05-25T05:34:43.648Z,80.62
2023-05-25T05:37:22.877Z,80.40
2023-05-25T05:39:52.919Z,80.26
2023-05-25T05:42:20.447Z,80.39
2023-05-25T05:44:47.770Z,80.27
2023-05-25T05:47:15.059Z,79.92
2023-05-25T05:49:42.718Z,79.90
2023-05-25T05:52:11.868Z,79.81
2023-05-25T05:54:39.692Z,79.92
2023-05-25T05:57:11.131Z,79.74
2023-05-25T05:59:38.318Z,79.52
2023-05-25T06:02:07.600Z,79.66
2023-05-25T06:04:35.693Z,79.70
2023-05-25T06:07:03.930Z,79.59
2023-05-25T06:09:31.082Z,79.31
2023-05-25T06:12:00.539Z,79.23
2023-05-25T06:14:28.947Z,79.10
2023-05-25T06:16:58.809Z,78.89
2023-05-25T06:19:26.544Z,78.81
2023-05-25T06:21:54.303Z,78.67
2023-05-25T06:24:21.760Z,78.29
2023-05-25T06:26:49.556Z,78.34
2023-05-25T06:29:17.580Z,78.23
2023-05-25T06:31:44.887Z,78.18
2023-05-25T06:34:12.722Z,77.97
2023-05-25T06:36:41.787Z,77.62
2023-05-25T06:39:10.403Z,77.27
2023-05-25T06:41:41.420Z,77.26
2023-05-25T06:44:08.614Z,77.21
2023-05-25T06:46:46.486Z,77.11
2023-05-25T06:49:15.582Z,77.15
2023-05-25T06:51:43.013Z,76.83
2023-05-25T06:54:12.071Z,76.71
2023-05-25T06:56:39.309Z,76.56
2023-05-25T06:59:06.659Z,76.46
2023-05-25T07:01:34.364Z,76.63
2023-05-25T07:04:01.718Z,76.62
2023-05-25T07:06:28.848Z,76.41
2023-05-25T07:08:56.711Z,76.31
2023-05-25T07:11:23.860Z,76.17
2023-05-25T07:13:51.002Z,76.28
2023-05-25T07:16:18.359Z,76.17
2023-05-25T07:18:45.594Z,76.06
2023-05-25T07:21:12.835Z,75.86
2023-05-25T07:23:41.256Z,75.77
2023-05-25T07:26:08.405Z,75.66
2023-05-25T07:28:35.616Z,75.69
2023-05-25T07:31:02.958Z,75.68
2023-05-25T07:33:30.111Z,75.47
2023-05-25T07:35:57.214Z,75.30
2023-05-25T07:38:24.543Z,74.81
2023-05-25T07:40:52.734Z,74.47
2023-05-25T07:43:21.176Z,74.38
2023-05-25T07:45:48.588Z,73.93
2023-05-25T07:48:16.326Z,74.06
2023-05-25T07:50:43.776Z,74.02
2023-05-25T07:53:11.325Z,73.80
2023-05-25T07:55:38.617Z,73.68
2023-05-25T07:58:07.613Z,73.77
2023-05-25T08:00:34.862Z,73.28
2023-05-25T08:03:02.877Z,72.82
2023-05-25T08:05:30.717Z,72.23
2023-05-25T08:07:58.092Z,72.06
2023-05-25T08:10:31.520Z,71.83
2023-05-25T08:12:59.637Z,71.38
2023-05-25T08:15:27.856Z,71.18
2023-05-25T08:17:57.195Z,70.88
2023-05-25T08:20:26.245Z,70.59
2023-05-25T08:22:54.830Z,69.55
2023-05-25T08:25:22.521Z,69.26
2023-05-25T08:27:49.958Z,68.37
2023-05-25T08:30:17.519Z,67.98
2023-05-25T08:32:45.444Z,67.39
2023-05-25T08:35:14.451Z,66.39
2023-05-25T08:37:43.740Z,65.83
2023-05-25T08:40:17.631Z,65.48
2023-05-25T08:42:46.114Z,64.85
2023-05-25T08:45:26.383Z,63.57
2023-05-25T08:48:02.811Z,62.07
2023-05-25T08:50:32.556Z,60.99
2023-05-25T08:53:03.306Z,60.55
2023-05-25T08:55:36.554Z,59.85
2023-05-25T08:58:08.447Z,58.70
2023-05-25T09:00:40.087Z,57.96
2023-05-25T09:03:12.993Z,57.54
2023-05-25T09:05:42.152Z,57.38
2023-05-25T09:08:10.502Z,56.78
2023-05-25T09:10:38.506Z,56.22
2023-05-25T09:13:20.544Z,55.83
2023-05-25T09:15:49.177Z,55.46
2023-05-25T09:18:16.281Z,55.28
2023-05-25T09:20:46.233Z,55.35
2023-05-25T09:23:14.513Z,54.37
2023-05-25T09:25:43.976Z,54.44
2023-05-25T09:30:42.793Z,53.88
2023-05-25T09:33:14.297Z,53.43
2023-05-25T09:35:42.600Z,51.83
2023-05-25T09:38:10.286Z,51.49
2023-05-25T09:40:39.376Z,50.76
2023-05-25T09:43:06.834Z,49.82
2023-05-25T09:45:35.136Z,48.95
2023-05-25T09:48:04.025Z,49.73
2023-05-25T09:50:32.650Z,49.84
2023-05-25T09:53:02.320Z,49.98
2023-05-25T09:55:40.321Z,50.07
2023-05-25T09:58:18.336Z,50.05
2023-05-25T10:00:46.806Z,50.33
2023-05-25T10:03:15.575Z,50.57
2023-05-25T10:05:42.960Z,51.03
2023-05-25T10:08:11.961Z,51.50
2023-05-25T10:10:40.196Z,51.99
2023-05-25T10:13:11.389Z,52.61
2023-05-25T10:15:41.858Z,53.06
2023-05-25T10:18:10.557Z,53.26
2023-05-25T10:20:39.420Z,53.47
2023-05-25T10:23:11.250Z,53.89
2023-05-25T10:25:45.423Z,54.03
2023-05-25T10:28:16.713Z,54.00
2023-05-25T10:30:44.387Z,54.26
2023-05-25T10:33:13.602Z,54.79
2023-05-25T10:36:01.691Z,55.26
2023-05-25T10:38:31.813Z,55.50
2023-05-25T10:40:59.653Z,55.65
2023-05-25T10:43:27.789Z,55.64
2023-05-25T10:45:56.189Z,55.53
2023-05-25T10:48:24.909Z,55.99
2023-05-25T10:50:54.299Z,55.88
2023-05-25T10:53:23.287Z,55.75
2023-05-25T10:56:05.633Z,55.63
2023-05-25T10:58:34.443Z,55.43
2023-05-25T11:01:03.509Z,55.33
2023-05-25T11:03:51.852Z,55.39
2023-05-25T11:06:21.669Z,55.26
2023-05-25T11:08:59.198Z,54.38
2023-05-25T11:12:06.650Z,53.86
2023-05-25T11:14:37.309Z,52.95
2023-05-25T11:17:13.110Z,52.47
2023-05-25T11:19:46.277Z,51.58
2023-05-25T11:22:20.791Z,50.91
2023-05-25T11:24:48.225Z,50.10
2023-05-25T11:27:15.675Z,49.42
2023-05-25T11:29:42.976Z,48.81
2023-05-25T11:32:15.520Z,47.90
2023-05-25T11:34:46.940Z,46.90
2023-05-25T11:37:16.181Z,46.43
2023-05-25T11:39:44.109Z,46.15
2023-05-25T11:42:12.467Z,46.07
2023-05-25T11:44:39.745Z,45.29
2023-05-25T11:47:09.995Z,44.76
2023-05-25T11:49:40.217Z,44.57
2023-05-25T11:52:09.711Z,44.31
2023-05-25T11:54:37.791Z,44.16
2023-05-25T11:57:05.150Z,43.49
2023-05-25T11:59:33.642Z,43.26
2023-05-25T12:02:05.276Z,43.18
2023-05-25T12:04:34.299Z,43.03
2023-05-25T12:07:09.096Z,42.59
2023-05-25T12:09:38.007Z,42.13
2023-05-25T12:12:06.712Z,42.22
2023-05-25T12:14:37.516Z,42.80
2023-05-25T12:17:04.927Z,42.99
2023-05-25T12:19:32.468Z,42.94
2023-05-25T12:22:00.120Z,42.92
2023-05-25T12:24:27.542Z,42.98
2023-05-25T12:26:57.666Z,42.96
2023-05-25T12:29:25.561Z,42.89
2023-05-25T12:31:53.102Z,42.97
2023-05-25T12:34:21.569Z,42.77
2023-05-25T12:36:52.964Z,42.87
2023-05-25T12:39:35.149Z,42.96
2023-05-25T12:42:03.919Z,42.01
2023-05-25T12:44:32.710Z,42.51
2023-05-25T12:47:13.174Z,42.80
2023-05-25T12:49:41.756Z,42.69
2023-05-25T12:52:10.228Z,42.73
2023-05-25T12:54:41.093Z,42.75
2023-05-25T12:57:09.347Z,42.97
2023-05-25T12:59:37.484Z,42.70
2023-05-25T13:02:06.542Z,42.31
2023-05-25T13:04:33.861Z,42.62
2023-05-25T13:07:01.748Z,42.76
2023-05-25T13:09:29.549Z,42.75
2023-05-25T13:11:57.757Z,43.12
2023-05-25T13:14:25.492Z,43.68
2023-05-25T13:16:54.065Z,43.56
2023-05-25T13:19:23.111Z,43.91
2023-05-25T13:21:51.930Z,43.70
2023-05-25T13:24:19.804Z,43.55
2023-05-25T13:26:49.159Z,43.41
2023-05-25T13:29:17.989Z,43.13
2023-05-25T13:31:45.418Z,43.36
2023-05-25T13:34:12.698Z,43.46
2023-05-25T13:36:39.921Z,43.33
2023-05-25T13:39:07.592Z,43.23
2023-05-25T13:41:35.069Z,43.23
2023-05-25T13:44:02.806Z,42.98
2023-05-25T13:46:35.280Z,42.42
2023-05-25T13:49:02.866Z,42.65
2023-05-25T13:51:30.128Z,42.74
2023-05-25T13:53:57.535Z,42.93
2023-05-25T13:56:24.635Z,43.28
2023-05-25T13:58:52.061Z,43.36
2023-05-25T14:01:19.395Z,43.79
2023-05-25T14:03:47.088Z,43.42
2023-05-25T14:06:14.736Z,43.73
2023-05-25T14:08:41.988Z,43.91
2023-05-25T14:11:09.500Z,43.95
2023-05-25T14:13:37.075Z,44.19
2023-05-25T14:16:04.666Z,44.34
2023-05-25T14:18:31.849Z,44.73
2023-05-25T14:20:59.623Z,44.45
2023-05-25T14:23:26.779Z,45.10
2023-05-25T14:25:54.036Z,45.14
2023-05-25T14:28:21.303Z,45.08
2023-05-25T14:30:48.679Z,45.40
2023-05-25T14:33:17.361Z,45.54
2023-05-25T14:35:45.022Z,45.58
2023-05-25T14:38:12.512Z,45.69
2023-05-25T14:40:39.589Z,45.61
2023-05-25T14:43:06.936Z,45.78
2023-05-25T14:45:34.286Z,46.07
2023-05-25T14:48:15.276Z,46.14
2023-05-25T14:50:44.768Z,45.87
2023-05-25T14:53:12.311Z,45.91
2023-05-25T14:55:41.007Z,46.15
2023-05-25T14:58:08.304Z,46.26
2023-05-25T15:00:35.410Z,46.52
2023-05-25T15:03:03.140Z,46.48
2023-05-25T15:05:30.625Z,46.47
2023-05-25T15:07:59.193Z,46.80
2023-05-25T15:10:26.890Z,46.92
2023-05-25T15:12:54.002Z,46.79
2023-05-25T15:15:21.156Z,46.73
2023-05-25T15:17:48.264Z,46.53
2023-05-25T15:20:15.793Z,46.70
2023-05-25T15:22:42.975Z,47.13
2023-05-25T15:25:10.526Z,47.29
2023-05-25T15:27:37.624Z,46.96
2023-05-25T15:30:07.402Z,46.16
2023-05-25T15:32:34.594Z,45.82
2023-05-25T15:35:01.812Z,45.95
2023-05-25T15:37:28.923Z,45.69
2023-05-25T15:39:56.476Z,45.46
2023-05-25T15:42:23.661Z,45.81
2023-05-25T15:44:51.059Z,45.85
2023-05-25T15:47:18.353Z,45.85
2023-05-25T15:49:45.529Z,46.02
2023-05-25T15:52:12.703Z,46.09
2023-05-25T15:54:39.828Z,46.35
2023-05-25T15:57:07.656Z,46.34
2023-05-25T15:59:34.874Z,46.20
2023-05-25T16:02:02.057Z,46.50
2023-05-25T16:04:29.276Z,46.85
2023-05-25T16:06:56.338Z,46.72
2023-05-25T16:09:23.485Z,47.04
2023-05-25T16:11:51.539Z,47.28
2023-05-25T16:14:18.812Z,47.42
2023-05-25T16:16:46.046Z,47.69
2023-05-25T16:19:14.198Z,47.84
2023-05-25T16:21:41.764Z,48.00
2023-05-25T16:24:09.527Z,48.33
2023-05-25T16:26:36.710Z,48.36
2023-05-25T16:29:04.074Z,48.56
2023-05-25T16:31:31.272Z,48.84
2023-05-25T16:33:58.452Z,49.07
2023-05-25T16:36:26.829Z,49.14
2023-05-25T16:38:54.077Z,49.05
2023-05-25T16:41:21.204Z,49.29
2023-05-25T16:43:48.609Z,49.34
2023-05-25T16:46:15.746Z,49.36
2023-05-25T16:48:42.924Z,49.53
2023-05-25T16:51:15.209Z,49.29
2023-05-25T16:53:43.862Z,49.22
2023-05-25T16:56:11.237Z,49.20
2023-05-25T16:58:38.422Z,49.11
2023-05-25T17:01:05.672Z,49.17
2023-05-25T17:03:33.090Z,49.11
2023-05-25T17:06:00.474Z,49.21
2023-05-25T17:08:28.038Z,49.30
2023-05-25T17:10:55.354Z,49.40
2023-05-25T17:13:22.983Z,49.64
2023-05-25T17:15:50.431Z,49.60
2023-05-25T17:18:18.008Z,49.83
2023-05-25T17:20:45.408Z,49.89
2023-05-25T17:23:12.712Z,50.18
2023-05-25T17:25:40.707Z,50.17
2023-05-25T17:28:08.399Z,50.31
2023-05-25T17:30:35.564Z,50.53
2023-05-25T17:33:02.913Z,50.65
2023-05-25T17:35:30.413Z,50.70
2023-05-25T17:37:57.898Z,50.94
2023-05-25T17:40:25.267Z,51.02
2023-05-25T17:42:52.448Z,51.09
2023-05-25T17:45:19.645Z,51.26
2023-05-25T17:47:46.807Z,51.51
2023-05-25T17:50:14.308Z,51.60
2023-05-25T17:52:42.756Z,51.72
2023-05-25T17:55:10.830Z,51.97
2023-05-25T17:57:38.020Z,51.90
2023-05-25T18:00:08.516Z,52.24
2023-05-25T18:02:44.859Z,52.38
2023-05-25T18:05:12.154Z,52.45
2023-05-25T18:07:39.310Z,52.58
2023-05-25T18:10:07.079Z,52.76
2023-05-25T18:12:34.317Z,52.88
2023-05-25T18:15:01.558Z,52.88
2023-05-25T18:17:28.682Z,52.95
2023-05-25T18:19:55.967Z,53.18
2023-05-25T18:22:23.346Z,53.35
2023-05-25T18:24:50.749Z,53.46
2023-05-25T18:27:17.878Z,53.42
2023-05-25T18:29:45.071Z,53.58
2023-05-25T18:32:12.158Z,53.75
2023-05-25T18:34:39.264Z,53.80
2023-05-25T18:37:06.713Z,53.99
2023-05-25T18:39:33.946Z,54.06
2023-05-25T18:42:01.745Z,54.33
2023-05-25T18:44:29.099Z,54.41
2023-05-25T18:46:57.021Z,54.61
2023-05-25T18:49:24.712Z,54.74
2023-05-25T18:51:51.972Z,54.77
2023-05-25T18:54:19.140Z,54.88
2023-05-25T18:56:46.518Z,55.18
2023-05-25T18:59:13.852Z,55.18
2023-05-25T19:01:41.036Z,55.32
2023-05-25T19:04:08.484Z,55.37
2023-05-25T19:06:36.270Z,55.52
2023-05-25T19:09:05.027Z,55.55
2023-05-25T19:11:32.334Z,55.76
2023-05-25T19:13:59.964Z,55.95
2023-05-25T19:16:27.501Z,55.88
2023-05-25T19:18:55.065Z,55.95
2023-05-25T19:21:22.361Z,56.02
2023-05-25T19:23:50.327Z,56.22
2023-05-25T19:26:18.025Z,56.30
2023-05-25T19:28:45.179Z,56.40
2023-05-25T19:31:12.601Z,56.30
2023-05-25T19:33:39.796Z,56.43
2023-05-25T19:36:07.518Z,56.72
2023-05-25T19:38:41.100Z,56.53
2023-05-25T19:41:09.678Z,56.79
2023-05-25T19:43:37.453Z,57.06
2023-05-25T19:46:05.183Z,57.02
2023-05-25T19:48:32.457Z,56.97
2023-05-25T19:51:01.186Z,57.29
2023-05-25T19:53:29.034Z,57.22
2023-05-25T19:55:56.308Z,57.28
2023-05-25T19:58:23.526Z,57.47
2023-05-25T20:00:51.006Z,57.44
2023-05-25T20:03:18.748Z,57.64
2023-05-25T20:05:46.556Z,57.62
2023-05-25T20:08:14.106Z,57.78
2023-05-25T20:10:42.468Z,58.11
2023-05-25T20:13:10.217Z,58.42
2023-05-25T20:15:37.585Z,58.24
2023-05-25T20:18:04.981Z,58.29
2023-05-25T20:20:32.356Z,58.60
2023-05-25T20:22:59.766Z,58.83
2023-05-25T20:25:27.070Z,59.07
2023-05-25T20:27:54.626Z,59.03
2023-05-25T20:30:22.289Z,59.16
2023-05-25T20:32:49.449Z,59.24
2023-05-25T20:35:17.239Z,59.22
2023-05-25T20:37:44.369Z,59.49
2023-05-25T20:40:12.404Z,59.75
2023-05-25T20:42:39.587Z,59.83
2023-05-25T20:45:07.851Z,60.02
2023-05-25T20:47:35.092Z,60.16
2023-05-25T20:50:02.353Z,60.48
2023-05-25T20:52:29.594Z,60.37
2023-05-25T20:54:56.738Z,60.58
2023-05-25T20:57:27.032Z,60.36
2023-05-25T20:59:59.706Z,60.83
2023-05-25T21:02:27.082Z,60.78
2023-05-25T21:04:54.842Z,61.03
2023-05-25T21:07:21.957Z,61.11
2023-05-25T21:09:49.414Z,61.30
2023-05-25T21:12:16.954Z,61.22
2023-05-25T21:14:44.100Z,61.34
2023-05-25T21:17:11.227Z,61.66
2023-05-25T21:19:38.378Z,61.73
2023-05-25T21:22:06.005Z,61.95
2023-05-25T21:24:33.354Z,62.21
2023-05-25T21:27:01.619Z,62.55
2023-05-25T21:29:28.739Z,62.39
2023-05-25T21:31:55.930Z,62.49
2023-05-25T21:34:23.291Z,62.58
2023-05-25T21:36:50.724Z,62.60
2023-05-25T21:39:20.049Z,62.65
2023-05-25T21:41:47.558Z,62.49
2023-05-25T21:44:14.644Z,62.05
2023-05-25T21:46:41.737Z,62.12
2023-05-25T21:49:08.867Z,62.02
2023-05-25T21:51:36.570Z,61.89
2023-05-25T21:54:03.747Z,61.88
2023-05-25T21:56:30.694Z,62.01
2023-05-25T21:58:57.810Z,62.33
2023-05-25T22:01:25.473Z,62.40
2023-05-25T22:03:52.410Z,62.47
2023-05-25T22:06:19.526Z,62.64
2023-05-25T22:08:46.779Z,62.73
2023-05-25T22:11:13.723Z,62.93
2023-05-25T22:13:40.682Z,63.23
2023-05-25T22:16:08.100Z,63.61
2023-05-25T22:18:37.074Z,63.56
2023-05-25T22:21:05.504Z,63.64
2023-05-25T22:23:32.398Z,64.06
2023-05-25T22:25:59.375Z,64.10
2023-05-25T22:28:26.641Z,64.24
2023-05-25T22:30:53.727Z,64.50
2023-05-25T22:33:20.726Z,64.66
2023-05-25T22:35:47.938Z,64.64
2023-05-25T22:38:15.640Z,64.78
2023-05-25T22:40:47.502Z,65.13
2023-05-25T22:43:14.779Z,65.33
2023-05-25T22:45:42.744Z,65.44
2023-05-25T22:48:10.413Z,65.79
2023-05-25T22:50:37.472Z,65.97
2023-05-25T22:53:07.024Z,66.02
2023-05-25T22:55:33.882Z,66.11
2023-05-25T22:58:00.978Z,66.19
2023-05-25T23:00:28.229Z,66.14
2023-05-25T23:02:59.073Z,66.30
2023-05-25T23:05:27.441Z,66.14
2023-05-25T23:07:54.435Z,66.17
2023-05-25T23:10:21.590Z,66.19
2023-05-25T23:12:48.692Z,65.92
2023-05-25T23:15:18.393Z,65.71
2023-05-25T23:17:45.516Z,65.49
2023-05-25T23:20:15.077Z,65.15
2023-05-25T23:22:43.148Z,64.91
2023-05-25T23:25:11.390Z,65.03
2023-05-25T23:27:38.658Z,64.84
2023-05-25T23:30:08.886Z,64.63
2023-05-25T23:32:36.244Z,64.35
2023-05-25T23:35:03.388Z,64.07
2023-05-25T23:37:30.286Z,64.05
2023-05-25T23:39:57.870Z,63.88
2023-05-25T23:42:24.937Z,63.89
2023-05-25T23:44:51.916Z,63.70
2023-05-25T23:47:18.827Z,63.58
2023-05-25T23:49:46.123Z,63.76
2023-05-25T23:52:13.015Z,63.85
2023-05-25T23:54:39.881Z,64.00
2023-05-25T23:57:07.453Z,64.02
2023-05-25T23:59:34.312Z,64.13
